sensor_id;sensor_type;location;lat;lon;timestamp;P1;durP1;ratioP1;P2;durP2;ratioP2
16624;SDS011;8426;48.496;9.098;2022-08-07T00:02:55;5.63;;;3.80;;
16624;SDS011;8426;48.496;9.098;2022-08-07T00:08:00;4.25;;;3.13;;
16624;SDS011;8426;48.496;9.098;2022-08-07T00:13:05;7.05;;;3.53;;
16624;SDS011;8426;48.496;9.098;2022-08-07T00:18:26;5.85;;;4.25;;
16624;SDS011;8426;48.496;9.098;2022-08-07T00:23:32;8.65;;;4.53;;
16624;SDS011;8426;48.496;9.098;2022-08-07T00:28:42;8.25;;;4.03;;
16624;SDS011;8426;48.496;9.098;2022-08-07T00:33:57;5.45;;;4.00;;
16624;SDS011;8426;48.496;9.098;2022-08-07T00:39:00;6.00;;;4.35;;
16624;SDS011;8426;48.496;9.098;2022-08-07T00:44:05;6.85;;;3.28;;
16624;SDS011;8426;48.496;9.098;2022-08-07T00:49:08;4.00;;;2.85;;
16624;SDS011;8426;48.496;9.098;2022-08-07T00:54:25;3.97;;;2.60;;
16624;SDS011;8426;48.496;9.098;2022-08-07T00:59:31;2.65;;;1.80;;
16624;SDS011;8426;48.496;9.098;2022-08-07T01:04:36;13.30;;;1.50;;
16624;SDS011;8426;48.496;9.098;2022-08-07T01:09:44;1.85;;;1.55;;
16624;SDS011;8426;48.496;9.098;2022-08-07T01:15:09;1.83;;;1.30;;
16624;SDS011;8426;48.496;9.098;2022-08-07T01:20:19;2.97;;;1.65;;
16624;SDS011;8426;48.496;9.098;2022-08-07T01:25:32;2.53;;;1.25;;
16624;SDS011;8426;48.496;9.098;2022-08-07T01:30:56;4.00;;;1.83;;
16624;SDS011;8426;48.496;9.098;2022-08-07T01:36:03;3.60;;;1.85;;
16624;SDS011;8426;48.496;9.098;2022-08-07T01:41:11;5.82;;;1.70;;
16624;SDS011;8426;48.496;9.098;2022-08-07T01:46:26;4.57;;;1.63;;
16624;SDS011;8426;48.496;9.098;2022-08-07T01:51:32;2.63;;;1.75;;
16624;SDS011;8426;48.496;9.098;2022-08-07T01:57:00;4.55;;;2.00;;
16624;SDS011;8426;48.496;9.098;2022-08-07T02:02:10;3.05;;;2.33;;
16624;SDS011;8426;48.496;9.098;2022-08-07T02:07:40;3.38;;;2.80;;
16624;SDS011;8426;48.496;9.098;2022-08-07T02:12:53;3.35;;;2.50;;
16624;SDS011;8426;48.496;9.098;2022-08-07T02:18:01;7.78;;;2.80;;
16624;SDS011;8426;48.496;9.098;2022-08-07T02:23:06;3.17;;;2.00;;
16624;SDS011;8426;48.496;9.098;2022-08-07T02:28:14;7.68;;;2.00;;
16624;SDS011;8426;48.496;9.098;2022-08-07T02:33:26;4.00;;;2.00;;
16624;SDS011;8426;48.496;9.098;2022-08-07T02:38:50;3.38;;;2.22;;
16624;SDS011;8426;48.496;9.098;2022-08-07T02:43:58;3.85;;;2.10;;
16624;SDS011;8426;48.496;9.098;2022-08-07T02:49:05;1.95;;;1.60;;
16624;SDS011;8426;48.496;9.098;2022-08-07T02:54:08;2.70;;;1.63;;
16624;SDS011;8426;48.496;9.098;2022-08-07T02:59:17;3.65;;;2.30;;
16624;SDS011;8426;48.496;9.098;2022-08-07T03:04:27;5.43;;;2.47;;
16624;SDS011;8426;48.496;9.098;2022-08-07T03:09:32;3.50;;;2.13;;
16624;SDS011;8426;48.496;9.098;2022-08-07T03:14:47;2.72;;;2.20;;
16624;SDS011;8426;48.496;9.098;2022-08-07T03:19:53;4.65;;;2.15;;
16624;SDS011;8426;48.496;9.098;2022-08-07T03:24:58;3.70;;;2.47;;
16624;SDS011;8426;48.496;9.098;2022-08-07T03:30:12;4.65;;;2.53;;
16624;SDS011;8426;48.496;9.098;2022-08-07T03:35:18;3.90;;;2.33;;
16624;SDS011;8426;48.496;9.098;2022-08-07T03:40:27;4.45;;;2.20;;
16624;SDS011;8426;48.496;9.098;2022-08-07T03:45:38;5.55;;;2.38;;
16624;SDS011;8426;48.496;9.098;2022-08-07T03:50:47;3.40;;;2.05;;
16624;SDS011;8426;48.496;9.098;2022-08-07T03:55:58;2.92;;;1.92;;
16624;SDS011;8426;48.496;9.098;2022-08-07T04:01:06;3.58;;;1.65;;
16624;SDS011;8426;48.496;9.098;2022-08-07T04:06:16;2.60;;;1.50;;
16624;SDS011;8426;48.496;9.098;2022-08-07T04:11:40;2.28;;;1.50;;
16624;SDS011;8426;48.496;9.098;2022-08-07T04:17:13;2.10;;;1.60;;
16624;SDS011;8426;48.496;9.098;2022-08-07T04:22:37;5.22;;;1.70;;
16624;SDS011;8426;48.496;9.098;2022-08-07T04:28:03;2.25;;;1.58;;
16624;SDS011;8426;48.496;9.098;2022-08-07T04:33:09;1.50;;;1.10;;
16624;SDS011;8426;48.496;9.098;2022-08-07T04:38:16;1.45;;;1.27;;
16624;SDS011;8426;48.496;9.098;2022-08-07T04:43:27;2.10;;;1.17;;
16624;SDS011;8426;48.496;9.098;2022-08-07T04:48:56;2.50;;;1.15;;
16624;SDS011;8426;48.496;9.098;2022-08-07T04:54:19;1.98;;;1.08;;
16624;SDS011;8426;48.496;9.098;2022-08-07T04:59:32;1.23;;;0.90;;
16624;SDS011;8426;48.496;9.098;2022-08-07T05:05:01;1.67;;;1.02;;
16624;SDS011;8426;48.496;9.098;2022-08-07T05:10:34;1.98;;;0.98;;
16624;SDS011;8426;48.496;9.098;2022-08-07T05:15:42;0.90;;;0.77;;
16624;SDS011;8426;48.496;9.098;2022-08-07T05:20:53;1.30;;;1.02;;
16624;SDS011;8426;48.496;9.098;2022-08-07T05:26:00;2.85;;;1.00;;
16624;SDS011;8426;48.496;9.098;2022-08-07T05:31:20;1.52;;;0.88;;
16624;SDS011;8426;48.496;9.098;2022-08-07T05:36:41;4.68;;;1.20;;
16624;SDS011;8426;48.496;9.098;2022-08-07T05:41:54;2.28;;;1.00;;
16624;SDS011;8426;48.496;9.098;2022-08-07T05:47:04;3.30;;;1.33;;
16624;SDS011;8426;48.496;9.098;2022-08-07T05:52:22;2.65;;;1.10;;
16624;SDS011;8426;48.496;9.098;2022-08-07T05:57:33;1.42;;;1.02;;
16624;SDS011;8426;48.496;9.098;2022-08-07T06:02:44;2.90;;;0.93;;
16624;SDS011;8426;48.496;9.098;2022-08-07T06:07:53;2.75;;;1.00;;
16624;SDS011;8426;48.496;9.098;2022-08-07T06:13:18;3.08;;;1.00;;
16624;SDS011;8426;48.496;9.098;2022-08-07T06:18:43;11.98;;;1.05;;
16624;SDS011;8426;48.496;9.098;2022-08-07T06:23:57;1.77;;;0.73;;
16624;SDS011;8426;48.496;9.098;2022-08-07T06:29:25;2.03;;;1.20;;
16624;SDS011;8426;48.496;9.098;2022-08-07T06:34:29;5.30;;;1.40;;
16624;SDS011;8426;48.496;9.098;2022-08-07T06:39:34;1.65;;;1.52;;
16624;SDS011;8426;48.496;9.098;2022-08-07T06:44:59;1.77;;;1.60;;
16624;SDS011;8426;48.496;9.098;2022-08-07T06:50:04;4.38;;;1.63;;
16624;SDS011;8426;48.496;9.098;2022-08-07T06:55:14;5.00;;;1.25;;
16624;SDS011;8426;48.496;9.098;2022-08-07T07:00:42;2.53;;;1.48;;
16624;SDS011;8426;48.496;9.098;2022-08-07T07:05:47;3.72;;;2.00;;
16624;SDS011;8426;48.496;9.098;2022-08-07T07:11:09;1.88;;;1.58;;
16624;SDS011;8426;48.496;9.098;2022-08-07T07:16:35;2.17;;;1.90;;
16624;SDS011;8426;48.496;9.098;2022-08-07T07:21:52;2.08;;;1.58;;
16624;SDS011;8426;48.496;9.098;2022-08-07T07:27:17;2.70;;;1.88;;
16624;SDS011;8426;48.496;9.098;2022-08-07T07:32:42;1.80;;;1.67;;
16624;SDS011;8426;48.496;9.098;2022-08-07T07:37:51;6.93;;;2.35;;
16624;SDS011;8426;48.496;9.098;2022-08-07T07:43:06;1.52;;;1.42;;
16624;SDS011;8426;48.496;9.098;2022-08-07T07:48:19;7.32;;;1.70;;
16624;SDS011;8426;48.496;9.098;2022-08-07T07:53:42;2.38;;;1.75;;
16624;SDS011;8426;48.496;9.098;2022-08-07T07:58:55;2.28;;;1.30;;
16624;SDS011;8426;48.496;9.098;2022-08-07T08:04:10;1.73;;;1.30;;
16624;SDS011;8426;48.496;9.098;2022-08-07T08:14:33;1.90;;;1.30;;
16624;SDS011;8426;48.496;9.098;2022-08-07T08:19:37;4.05;;;1.15;;
16624;SDS011;8426;48.496;9.098;2022-08-07T08:25:02;1.35;;;1.00;;
16624;SDS011;8426;48.496;9.098;2022-08-07T08:30:44;1.48;;;1.20;;
16624;SDS011;8426;48.496;9.098;2022-08-07T08:35:56;2.45;;;0.90;;
16624;SDS011;8426;48.496;9.098;2022-08-07T08:46:53;2.17;;;1.15;;
16624;SDS011;8426;48.496;9.098;2022-08-07T08:52:07;4.10;;;1.23;;
16624;SDS011;8426;48.496;9.098;2022-08-07T08:57:23;4.75;;;1.08;;
16624;SDS011;8426;48.496;9.098;2022-08-07T09:02:39;1.92;;;0.75;;
16624;SDS011;8426;48.496;9.098;2022-08-07T09:07:54;1.15;;;0.70;;
16624;SDS011;8426;48.496;9.098;2022-08-07T09:13:06;2.35;;;0.90;;
16624;SDS011;8426;48.496;9.098;2022-08-07T09:18:51;1.02;;;0.85;;
16624;SDS011;8426;48.496;9.098;2022-08-07T09:24:32;1.83;;;0.80;;
16624;SDS011;8426;48.496;9.098;2022-08-07T09:30:06;2.03;;;0.70;;
16624;SDS011;8426;48.496;9.098;2022-08-07T09:35:19;0.80;;;0.43;;
16624;SDS011;8426;48.496;9.098;2022-08-07T09:46:27;2.50;;;0.60;;
16624;SDS011;8426;48.496;9.098;2022-08-07T09:52:08;1.92;;;0.70;;
16624;SDS011;8426;48.496;9.098;2022-08-07T10:03:57;0.70;;;0.50;;
16624;SDS011;8426;48.496;9.098;2022-08-07T10:09:26;0.80;;;0.70;;
16624;SDS011;8426;48.496;9.098;2022-08-07T10:15:09;0.50;;;0.50;;
16624;SDS011;8426;48.496;9.098;2022-08-07T10:20:48;2.80;;;0.70;;
16624;SDS011;8426;48.496;9.098;2022-08-07T10:26:29;0.60;;;0.50;;
16624;SDS011;8426;48.496;9.098;2022-08-07T10:31:58;1.05;;;0.70;;
16624;SDS011;8426;48.496;9.098;2022-08-07T10:37:44;1.85;;;0.80;;
16624;SDS011;8426;48.496;9.098;2022-08-07T10:43:22;1.83;;;0.70;;
16624;SDS011;8426;48.496;9.098;2022-08-07T10:48:37;1.02;;;0.70;;
16624;SDS011;8426;48.496;9.098;2022-08-07T10:53:54;0.65;;;0.60;;
16624;SDS011;8426;48.496;9.098;2022-08-07T10:59:08;1.55;;;0.80;;
16624;SDS011;8426;48.496;9.098;2022-08-07T11:04:23;1.35;;;0.68;;
16624;SDS011;8426;48.496;9.098;2022-08-07T11:09:42;2.25;;;0.60;;
16624;SDS011;8426;48.496;9.098;2022-08-07T11:15:12;0.80;;;0.70;;
16624;SDS011;8426;48.496;9.098;2022-08-07T11:20:30;3.35;;;0.73;;
16624;SDS011;8426;48.496;9.098;2022-08-07T11:25:50;4.05;;;1.02;;
16624;SDS011;8426;48.496;9.098;2022-08-07T11:31:09;2.70;;;0.88;;
16624;SDS011;8426;48.496;9.098;2022-08-07T11:36:32;4.20;;;1.13;;
16624;SDS011;8426;48.496;9.098;2022-08-07T11:41:42;5.57;;;1.17;;
16624;SDS011;8426;48.496;9.098;2022-08-07T11:47:11;2.67;;;0.73;;
16624;SDS011;8426;48.496;9.098;2022-08-07T11:52:43;3.88;;;0.65;;
16624;SDS011;8426;48.496;9.098;2022-08-07T11:57:58;1.85;;;0.80;;
16624;SDS011;8426;48.496;9.098;2022-08-07T12:03:36;4.07;;;1.90;;
16624;SDS011;8426;48.496;9.098;2022-08-07T12:08:55;2.38;;;1.33;;
16624;SDS011;8426;48.496;9.098;2022-08-07T12:14:05;3.13;;;1.52;;
16624;SDS011;8426;48.496;9.098;2022-08-07T12:19:15;3.47;;;1.48;;
16624;SDS011;8426;48.496;9.098;2022-08-07T12:24:50;0.77;;;0.65;;
16624;SDS011;8426;48.496;9.098;2022-08-07T12:30:36;4.95;;;1.60;;
16624;SDS011;8426;48.496;9.098;2022-08-07T12:35:54;3.53;;;1.67;;
16624;SDS011;8426;48.496;9.098;2022-08-07T12:41:02;4.00;;;0.75;;
16624;SDS011;8426;48.496;9.098;2022-08-07T12:51:42;2.58;;;0.90;;
16624;SDS011;8426;48.496;9.098;2022-08-07T12:57:11;1.10;;;0.80;;
16624;SDS011;8426;48.496;9.098;2022-08-07T13:02:32;3.58;;;0.88;;
16624;SDS011;8426;48.496;9.098;2022-08-07T13:08:05;2.15;;;0.90;;
16624;SDS011;8426;48.496;9.098;2022-08-07T13:13:26;0.82;;;0.70;;
16624;SDS011;8426;48.496;9.098;2022-08-07T13:18:52;1.20;;;0.70;;
16624;SDS011;8426;48.496;9.098;2022-08-07T13:24:04;0.95;;;0.60;;
16624;SDS011;8426;48.496;9.098;2022-08-07T13:29:15;1.15;;;0.63;;
16624;SDS011;8426;48.496;9.098;2022-08-07T13:34:37;0.98;;;0.63;;
16624;SDS011;8426;48.496;9.098;2022-08-07T13:39:58;0.90;;;0.70;;
16624;SDS011;8426;48.496;9.098;2022-08-07T13:45:33;4.07;;;0.68;;
16624;SDS011;8426;48.496;9.098;2022-08-07T13:51:01;0.65;;;0.60;;
16624;SDS011;8426;48.496;9.098;2022-08-07T13:56:27;1.35;;;0.80;;
16624;SDS011;8426;48.496;9.098;2022-08-07T14:01:43;6.45;;;0.98;;
16624;SDS011;8426;48.496;9.098;2022-08-07T14:07:05;1.02;;;0.63;;
16624;SDS011;8426;48.496;9.098;2022-08-07T14:12:18;1.45;;;0.82;;
16624;SDS011;8426;48.496;9.098;2022-08-07T14:17:28;1.58;;;0.70;;
16624;SDS011;8426;48.496;9.098;2022-08-07T14:22:59;2.30;;;0.80;;
16624;SDS011;8426;48.496;9.098;2022-08-07T14:28:08;3.95;;;1.08;;
16624;SDS011;8426;48.496;9.098;2022-08-07T14:33:14;2.05;;;1.00;;
16624;SDS011;8426;48.496;9.098;2022-08-07T14:38:29;1.52;;;0.70;;
16624;SDS011;8426;48.496;9.098;2022-08-07T14:43:37;3.33;;;1.20;;
16624;SDS011;8426;48.496;9.098;2022-08-07T14:49:00;0.70;;;0.70;;
16624;SDS011;8426;48.496;9.098;2022-08-07T14:54:27;2.83;;;0.95;;
16624;SDS011;8426;48.496;9.098;2022-08-07T14:59:54;1.23;;;0.93;;
16624;SDS011;8426;48.496;9.098;2022-08-07T15:05:07;1.13;;;0.90;;
16624;SDS011;8426;48.496;9.098;2022-08-07T15:10:21;1.88;;;1.00;;
16624;SDS011;8426;48.496;9.098;2022-08-07T15:15:34;5.00;;;1.00;;
16624;SDS011;8426;48.496;9.098;2022-08-07T15:20:40;2.67;;;1.15;;
16624;SDS011;8426;48.496;9.098;2022-08-07T15:25:57;1.02;;;0.80;;
16624;SDS011;8426;48.496;9.098;2022-08-07T15:31:05;1.42;;;1.10;;
16624;SDS011;8426;48.496;9.098;2022-08-07T15:36:12;1.50;;;1.00;;
16624;SDS011;8426;48.496;9.098;2022-08-07T15:41:38;1.30;;;1.00;;
16624;SDS011;8426;48.496;9.098;2022-08-07T15:47:21;1.60;;;1.00;;
16624;SDS011;8426;48.496;9.098;2022-08-07T15:52:48;0.88;;;0.88;;
16624;SDS011;8426;48.496;9.098;2022-08-07T15:57:53;1.27;;;0.90;;
16624;SDS011;8426;48.496;9.098;2022-08-07T16:03:03;2.25;;;1.00;;
16624;SDS011;8426;48.496;9.098;2022-08-07T16:08:30;5.78;;;0.98;;
16624;SDS011;8426;48.496;9.098;2022-08-07T16:13:53;1.63;;;0.90;;
16624;SDS011;8426;48.496;9.098;2022-08-07T16:19:11;3.50;;;0.80;;
16624;SDS011;8426;48.496;9.098;2022-08-07T16:24:45;1.42;;;1.00;;
16624;SDS011;8426;48.496;9.098;2022-08-07T16:30:04;1.30;;;1.10;;
16624;SDS011;8426;48.496;9.098;2022-08-07T16:35:31;2.25;;;1.00;;
16624;SDS011;8426;48.496;9.098;2022-08-07T16:46:59;1.17;;;0.93;;
16624;SDS011;8426;48.496;9.098;2022-08-07T16:52:50;1.10;;;0.75;;
16624;SDS011;8426;48.496;9.098;2022-08-07T16:58:25;0.93;;;0.82;;
16624;SDS011;8426;48.496;9.098;2022-08-07T17:04:02;3.17;;;1.10;;
16624;SDS011;8426;48.496;9.098;2022-08-07T17:09:17;2.42;;;0.98;;
16624;SDS011;8426;48.496;9.098;2022-08-07T17:14:51;1.33;;;0.90;;
16624;SDS011;8426;48.496;9.098;2022-08-07T17:20:02;1.50;;;1.00;;
16624;SDS011;8426;48.496;9.098;2022-08-07T17:25:24;1.85;;;1.10;;
16624;SDS011;8426;48.496;9.098;2022-08-07T17:31:03;1.25;;;0.90;;
16624;SDS011;8426;48.496;9.098;2022-08-07T17:36:17;1.00;;;0.60;;
16624;SDS011;8426;48.496;9.098;2022-08-07T17:41:37;1.60;;;0.95;;
16624;SDS011;8426;48.496;9.098;2022-08-07T17:47:06;3.40;;;0.82;;
16624;SDS011;8426;48.496;9.098;2022-08-07T17:52:33;1.17;;;0.80;;
16624;SDS011;8426;48.496;9.098;2022-08-07T17:57:45;0.60;;;0.60;;
16624;SDS011;8426;48.496;9.098;2022-08-07T18:03:06;0.77;;;0.65;;
16624;SDS011;8426;48.496;9.098;2022-08-07T18:08:22;0.93;;;0.60;;
16624;SDS011;8426;48.496;9.098;2022-08-07T18:13:40;1.17;;;0.90;;
16624;SDS011;8426;48.496;9.098;2022-08-07T18:18:50;0.77;;;0.77;;
16624;SDS011;8426;48.496;9.098;2022-08-07T18:24:17;1.92;;;0.75;;
16624;SDS011;8426;48.496;9.098;2022-08-07T18:29:41;1.15;;;0.55;;
16624;SDS011;8426;48.496;9.098;2022-08-07T18:35:20;0.80;;;0.60;;
16624;SDS011;8426;48.496;9.098;2022-08-07T18:40:31;1.63;;;0.80;;
16624;SDS011;8426;48.496;9.098;2022-08-07T18:45:58;1.63;;;0.70;;
16624;SDS011;8426;48.496;9.098;2022-08-07T18:51:26;1.50;;;0.70;;
16624;SDS011;8426;48.496;9.098;2022-08-07T18:56:56;8.00;;;0.80;;
16624;SDS011;8426;48.496;9.098;2022-08-07T19:02:34;0.93;;;0.60;;
16624;SDS011;8426;48.496;9.098;2022-08-07T19:07:47;3.75;;;0.73;;
16624;SDS011;8426;48.496;9.098;2022-08-07T19:13:02;0.80;;;0.52;;
16624;SDS011;8426;48.496;9.098;2022-08-07T19:18:17;1.85;;;0.70;;
16624;SDS011;8426;48.496;9.098;2022-08-07T19:23:37;1.45;;;0.60;;
16624;SDS011;8426;48.496;9.098;2022-08-07T19:29:00;0.77;;;0.55;;
16624;SDS011;8426;48.496;9.098;2022-08-07T19:34:30;0.77;;;0.70;;
16624;SDS011;8426;48.496;9.098;2022-08-07T19:39:39;3.47;;;0.80;;
16624;SDS011;8426;48.496;9.098;2022-08-07T19:45:02;0.73;;;0.55;;
16624;SDS011;8426;48.496;9.098;2022-08-07T19:50:12;1.52;;;0.60;;
16624;SDS011;8426;48.496;9.098;2022-08-07T19:55:36;1.38;;;0.60;;
16624;SDS011;8426;48.496;9.098;2022-08-07T20:00:58;1.58;;;0.68;;
16624;SDS011;8426;48.496;9.098;2022-08-07T20:06:06;0.93;;;0.70;;
16624;SDS011;8426;48.496;9.098;2022-08-07T20:11:30;2.78;;;1.02;;
16624;SDS011;8426;48.496;9.098;2022-08-07T20:16:55;0.80;;;0.63;;
16624;SDS011;8426;48.496;9.098;2022-08-07T20:22:07;0.70;;;0.60;;
16624;SDS011;8426;48.496;9.098;2022-08-07T20:27:14;1.42;;;0.60;;
16624;SDS011;8426;48.496;9.098;2022-08-07T20:32:40;4.43;;;0.80;;
16624;SDS011;8426;48.496;9.098;2022-08-07T20:37:48;0.95;;;0.60;;
16624;SDS011;8426;48.496;9.098;2022-08-07T20:43:01;1.40;;;0.70;;
16624;SDS011;8426;48.496;9.098;2022-08-07T20:48:21;1.08;;;0.60;;
16624;SDS011;8426;48.496;9.098;2022-08-07T20:53:32;0.73;;;0.45;;
16624;SDS011;8426;48.496;9.098;2022-08-07T20:59:03;1.17;;;0.57;;
16624;SDS011;8426;48.496;9.098;2022-08-07T21:04:29;0.70;;;0.50;;
16624;SDS011;8426;48.496;9.098;2022-08-07T21:09:35;1.83;;;0.70;;
16624;SDS011;8426;48.496;9.098;2022-08-07T21:15:02;3.40;;;0.80;;
16624;SDS011;8426;48.496;9.098;2022-08-07T21:20:19;1.02;;;0.68;;
16624;SDS011;8426;48.496;9.098;2022-08-07T21:25:35;1.02;;;0.65;;
16624;SDS011;8426;48.496;9.098;2022-08-07T21:31:01;1.27;;;0.70;;
16624;SDS011;8426;48.496;9.098;2022-08-07T21:36:12;1.33;;;0.60;;
16624;SDS011;8426;48.496;9.098;2022-08-07T21:41:35;0.52;;;0.50;;
16624;SDS011;8426;48.496;9.098;2022-08-07T21:47:03;0.60;;;0.60;;
16624;SDS011;8426;48.496;9.098;2022-08-07T21:52:20;0.95;;;0.50;;
16624;SDS011;8426;48.496;9.098;2022-08-07T21:57:38;0.90;;;0.68;;
16624;SDS011;8426;48.496;9.098;2022-08-07T22:02:55;3.25;;;0.88;;
16624;SDS011;8426;48.496;9.098;2022-08-07T22:08:06;0.70;;;0.60;;
16624;SDS011;8426;48.496;9.098;2022-08-07T22:13:13;1.67;;;0.60;;
16624;SDS011;8426;48.496;9.098;2022-08-07T22:18:41;1.20;;;0.75;;
16624;SDS011;8426;48.496;9.098;2022-08-07T22:23:51;3.33;;;0.80;;
16624;SDS011;8426;48.496;9.098;2022-08-07T22:29:05;1.88;;;0.65;;
16624;SDS011;8426;48.496;9.098;2022-08-07T22:34:16;4.43;;;0.80;;
16624;SDS011;8426;48.496;9.098;2022-08-07T22:39:33;0.95;;;0.70;;
16624;SDS011;8426;48.496;9.098;2022-08-07T22:44:56;1.65;;;0.80;;
16624;SDS011;8426;48.496;9.098;2022-08-07T22:50:23;0.77;;;0.70;;
16624;SDS011;8426;48.496;9.098;2022-08-07T22:55:37;0.95;;;0.73;;
16624;SDS011;8426;48.496;9.098;2022-08-07T23:00:53;0.98;;;0.70;;
16624;SDS011;8426;48.496;9.098;2022-08-07T23:06:27;0.90;;;0.80;;
16624;SDS011;8426;48.496;9.098;2022-08-07T23:11:46;2.63;;;0.80;;
16624;SDS011;8426;48.496;9.098;2022-08-07T23:17:10;1.00;;;0.90;;
16624;SDS011;8426;48.496;9.098;2022-08-07T23:22:33;2.80;;;0.95;;
16624;SDS011;8426;48.496;9.098;2022-08-07T23:28:01;1.15;;;0.73;;
16624;SDS011;8426;48.496;9.098;2022-08-07T23:33:39;1.52;;;0.90;;
16624;SDS011;8426;48.496;9.098;2022-08-07T23:39:16;1.98;;;1.15;;
16624;SDS011;8426;48.496;9.098;2022-08-07T23:44:30;2.38;;;0.90;;
16624;SDS011;8426;48.496;9.098;2022-08-07T23:50:05;1.00;;;0.90;;
16624;SDS011;8426;48.496;9.098;2022-08-07T23:55:22;1.70;;;0.82;;
